Terminal Aerodrome Forecast
Issued by NWS

Home | Current Version | Previous Version | Text Only | Print | Product List | Glossary On
Versions: 1 2 3 4 5 6 7 8 9 10 11 12 13 14
000
FTUS43 KIWX 250021 CCA
TAFSBN
TAF COR
KSBN 250021Z 2500/2524 23007KT P6SM BKN080
     FM250900 23006KT P6SM VCTS BKN100CB
     FM251700 26007KT P6SM VCTS BKN045CB
     FM251800 28007KT P6SM OVC040
     FM252100 31008KT P6SM SCT050=

USA.gov is the U.S. government's official web portal to all federal, state and local government web resources and services.